sensor_id;sensor_type;location;lat;lon;timestamp;P1;durP1;ratioP1;P2;durP2;ratioP2
13807;SDS011;40769;51.512;5.494;2022-07-22T00:01:18;2.40;;;2.20;;
13807;SDS011;40769;51.512;5.494;2022-07-22T00:03:44;2.53;;;2.33;;
13807;SDS011;40769;51.512;5.494;2022-07-22T00:06:10;2.70;;;2.50;;
13807;SDS011;40769;51.512;5.494;2022-07-22T00:08:36;2.60;;;2.40;;
13807;SDS011;40769;51.512;5.494;2022-07-22T00:11:01;2.40;;;2.08;;
13807;SDS011;40769;51.512;5.494;2022-07-22T00:13:28;2.55;;;2.33;;
13807;SDS011;40769;51.512;5.494;2022-07-22T00:15:53;4.15;;;2.92;;
13807;SDS011;40769;51.512;5.494;2022-07-22T00:18:19;3.30;;;2.28;;
13807;SDS011;40769;51.512;5.494;2022-07-22T00:20:44;4.20;;;2.22;;
13807;SDS011;40769;51.512;5.494;2022-07-22T00:23:10;3.13;;;2.72;;
13807;SDS011;40769;51.512;5.494;2022-07-22T00:25:36;3.13;;;2.47;;
13807;SDS011;40769;51.512;5.494;2022-07-22T00:28:02;3.15;;;2.50;;
13807;SDS011;40769;51.512;5.494;2022-07-22T00:30:27;2.83;;;2.30;;
13807;SDS011;40769;51.512;5.494;2022-07-22T00:32:53;2.40;;;2.20;;
13807;SDS011;40769;51.512;5.494;2022-07-22T00:35:18;3.83;;;2.30;;
13807;SDS011;40769;51.512;5.494;2022-07-22T00:37:44;3.20;;;2.30;;
13807;SDS011;40769;51.512;5.494;2022-07-22T00:40:10;2.50;;;2.28;;
13807;SDS011;40769;51.512;5.494;2022-07-22T00:42:36;2.22;;;2.13;;
13807;SDS011;40769;51.512;5.494;2022-07-22T00:45:02;2.45;;;2.17;;
13807;SDS011;40769;51.512;5.494;2022-07-22T00:47:28;2.63;;;2.30;;
13807;SDS011;40769;51.512;5.494;2022-07-22T00:49:53;2.45;;;2.22;;
13807;SDS011;40769;51.512;5.494;2022-07-22T00:52:19;2.40;;;2.20;;
13807;SDS011;40769;51.512;5.494;2022-07-22T00:54:45;2.25;;;2.05;;
13807;SDS011;40769;51.512;5.494;2022-07-22T00:57:11;3.90;;;3.05;;
13807;SDS011;40769;51.512;5.494;2022-07-22T00:59:36;3.05;;;2.72;;
13807;SDS011;40769;51.512;5.494;2022-07-22T01:02:02;3.22;;;2.40;;
13807;SDS011;40769;51.512;5.494;2022-07-22T01:04:28;2.85;;;2.33;;
13807;SDS011;40769;51.512;5.494;2022-07-22T01:06:54;2.95;;;2.65;;
13807;SDS011;40769;51.512;5.494;2022-07-22T01:09:20;3.05;;;2.60;;
13807;SDS011;40769;51.512;5.494;2022-07-22T01:11:48;3.20;;;2.90;;
13807;SDS011;40769;51.512;5.494;2022-07-22T01:14:14;4.78;;;3.35;;
13807;SDS011;40769;51.512;5.494;2022-07-22T01:16:39;3.35;;;3.00;;
13807;SDS011;40769;51.512;5.494;2022-07-22T01:19:05;3.13;;;2.83;;
13807;SDS011;40769;51.512;5.494;2022-07-22T01:21:31;3.65;;;3.20;;
13807;SDS011;40769;51.512;5.494;2022-07-22T01:23:57;3.20;;;2.90;;
13807;SDS011;40769;51.512;5.494;2022-07-22T01:26:22;4.25;;;3.42;;
13807;SDS011;40769;51.512;5.494;2022-07-22T01:28:48;4.10;;;3.13;;
13807;SDS011;40769;51.512;5.494;2022-07-22T01:31:14;5.22;;;2.95;;
13807;SDS011;40769;51.512;5.494;2022-07-22T01:33:39;2.85;;;2.60;;
13807;SDS011;40769;51.512;5.494;2022-07-22T01:36:05;3.00;;;2.70;;
13807;SDS011;40769;51.512;5.494;2022-07-22T01:38:32;3.47;;;3.17;;
13807;SDS011;40769;51.512;5.494;2022-07-22T01:40:57;4.78;;;3.47;;
13807;SDS011;40769;51.512;5.494;2022-07-22T01:43:23;4.93;;;3.42;;
13807;SDS011;40769;51.512;5.494;2022-07-22T01:45:50;2.70;;;2.50;;
13807;SDS011;40769;51.512;5.494;2022-07-22T01:48:17;3.10;;;2.80;;
13807;SDS011;40769;51.512;5.494;2022-07-22T01:50:43;2.65;;;2.45;;
13807;SDS011;40769;51.512;5.494;2022-07-22T01:53:09;3.20;;;2.47;;
13807;SDS011;40769;51.512;5.494;2022-07-22T01:55:35;3.05;;;2.75;;
13807;SDS011;40769;51.512;5.494;2022-07-22T01:58:02;2.80;;;2.60;;
13807;SDS011;40769;51.512;5.494;2022-07-22T02:00:29;3.78;;;2.80;;
13807;SDS011;40769;51.512;5.494;2022-07-22T02:02:55;2.67;;;2.47;;
13807;SDS011;40769;51.512;5.494;2022-07-22T02:05:21;3.38;;;3.08;;
13807;SDS011;40769;51.512;5.494;2022-07-22T02:07:46;2.78;;;2.58;;
13807;SDS011;40769;51.512;5.494;2022-07-22T02:10:12;2.90;;;2.63;;
13807;SDS011;40769;51.512;5.494;2022-07-22T02:12:38;5.07;;;2.88;;
13807;SDS011;40769;51.512;5.494;2022-07-22T02:15:03;5.20;;;3.83;;
13807;SDS011;40769;51.512;5.494;2022-07-22T02:17:30;4.35;;;3.58;;
13807;SDS011;40769;51.512;5.494;2022-07-22T02:19:58;3.08;;;2.78;;
13807;SDS011;40769;51.512;5.494;2022-07-22T02:22:23;5.82;;;3.30;;
13807;SDS011;40769;51.512;5.494;2022-07-22T02:24:49;5.00;;;4.05;;
13807;SDS011;40769;51.512;5.494;2022-07-22T02:27:14;5.40;;;3.67;;
13807;SDS011;40769;51.512;5.494;2022-07-22T02:29:40;3.88;;;3.17;;
13807;SDS011;40769;51.512;5.494;2022-07-22T02:32:06;3.33;;;2.70;;
13807;SDS011;40769;51.512;5.494;2022-07-22T02:34:31;3.30;;;3.00;;
13807;SDS011;40769;51.512;5.494;2022-07-22T02:36:57;4.97;;;3.10;;
13807;SDS011;40769;51.512;5.494;2022-07-22T02:39:23;4.32;;;3.33;;
13807;SDS011;40769;51.512;5.494;2022-07-22T02:41:48;3.17;;;2.97;;
13807;SDS011;40769;51.512;5.494;2022-07-22T02:44:14;2.90;;;2.47;;
13807;SDS011;40769;51.512;5.494;2022-07-22T02:46:39;2.92;;;2.70;;
13807;SDS011;40769;51.512;5.494;2022-07-22T02:49:05;3.63;;;3.10;;
13807;SDS011;40769;51.512;5.494;2022-07-22T02:51:30;3.00;;;2.80;;
13807;SDS011;40769;51.512;5.494;2022-07-22T02:53:57;4.40;;;3.40;;
13807;SDS011;40769;51.512;5.494;2022-07-22T02:56:22;5.03;;;3.38;;
13807;SDS011;40769;51.512;5.494;2022-07-22T02:58:48;5.15;;;4.10;;
13807;SDS011;40769;51.512;5.494;2022-07-22T03:01:17;5.70;;;3.33;;
13807;SDS011;40769;51.512;5.494;2022-07-22T03:03:43;3.83;;;3.05;;
13807;SDS011;40769;51.512;5.494;2022-07-22T03:06:09;5.75;;;3.70;;
13807;SDS011;40769;51.512;5.494;2022-07-22T03:08:34;3.50;;;3.20;;
13807;SDS011;40769;51.512;5.494;2022-07-22T03:11:01;4.03;;;2.92;;
13807;SDS011;40769;51.512;5.494;2022-07-22T03:13:27;4.97;;;3.70;;
13807;SDS011;40769;51.512;5.494;2022-07-22T03:15:52;6.32;;;3.85;;
13807;SDS011;40769;51.512;5.494;2022-07-22T03:18:18;4.57;;;4.10;;
13807;SDS011;40769;51.512;5.494;2022-07-22T03:20:44;4.00;;;3.60;;
13807;SDS011;40769;51.512;5.494;2022-07-22T03:23:09;4.60;;;3.55;;
13807;SDS011;40769;51.512;5.494;2022-07-22T03:25:35;5.22;;;4.10;;
13807;SDS011;40769;51.512;5.494;2022-07-22T03:28:00;3.22;;;2.92;;
13807;SDS011;40769;51.512;5.494;2022-07-22T03:30:26;5.03;;;3.70;;
13807;SDS011;40769;51.512;5.494;2022-07-22T03:32:51;3.55;;;3.22;;
13807;SDS011;40769;51.512;5.494;2022-07-22T03:35:17;5.00;;;3.65;;
13807;SDS011;40769;51.512;5.494;2022-07-22T03:37:43;3.70;;;2.70;;
13807;SDS011;40769;51.512;5.494;2022-07-22T03:40:09;3.22;;;2.92;;
13807;SDS011;40769;51.512;5.494;2022-07-22T03:42:35;3.65;;;2.83;;
13807;SDS011;40769;51.512;5.494;2022-07-22T03:45:01;3.85;;;3.55;;
13807;SDS011;40769;51.512;5.494;2022-07-22T03:47:26;3.38;;;2.97;;
13807;SDS011;40769;51.512;5.494;2022-07-22T03:49:52;3.88;;;3.17;;
13807;SDS011;40769;51.512;5.494;2022-07-22T03:52:18;4.10;;;2.95;;
13807;SDS011;40769;51.512;5.494;2022-07-22T03:54:44;3.80;;;3.50;;
13807;SDS011;40769;51.512;5.494;2022-07-22T03:57:10;5.65;;;3.90;;
13807;SDS011;40769;51.512;5.494;2022-07-22T03:59:36;4.28;;;3.33;;
13807;SDS011;40769;51.512;5.494;2022-07-22T04:02:02;3.67;;;3.38;;
13807;SDS011;40769;51.512;5.494;2022-07-22T04:04:28;3.03;;;2.80;;
13807;SDS011;40769;51.512;5.494;2022-07-22T04:06:54;3.28;;;2.97;;
13807;SDS011;40769;51.512;5.494;2022-07-22T04:09:20;4.50;;;3.15;;
13807;SDS011;40769;51.512;5.494;2022-07-22T04:11:45;4.95;;;3.30;;
13807;SDS011;40769;51.512;5.494;2022-07-22T04:14:11;6.50;;;4.53;;
13807;SDS011;40769;51.512;5.494;2022-07-22T04:16:37;4.97;;;4.55;;
13807;SDS011;40769;51.512;5.494;2022-07-22T04:19:03;3.95;;;3.65;;
13807;SDS011;40769;51.512;5.494;2022-07-22T04:21:29;3.88;;;3.58;;
13807;SDS011;40769;51.512;5.494;2022-07-22T04:23:55;4.55;;;4.15;;
13807;SDS011;40769;51.512;5.494;2022-07-22T04:26:21;4.63;;;4.22;;
13807;SDS011;40769;51.512;5.494;2022-07-22T04:28:47;5.55;;;4.88;;
13807;SDS011;40769;51.512;5.494;2022-07-22T04:31:13;4.28;;;3.88;;
13807;SDS011;40769;51.512;5.494;2022-07-22T04:33:38;3.95;;;3.38;;
13807;SDS011;40769;51.512;5.494;2022-07-22T04:36:04;5.43;;;4.00;;
13807;SDS011;40769;51.512;5.494;2022-07-22T04:38:30;5.88;;;4.25;;
13807;SDS011;40769;51.512;5.494;2022-07-22T04:40:55;3.53;;;3.22;;
13807;SDS011;40769;51.512;5.494;2022-07-22T04:43:22;5.40;;;3.70;;
13807;SDS011;40769;51.512;5.494;2022-07-22T04:45:48;5.22;;;4.20;;
13807;SDS011;40769;51.512;5.494;2022-07-22T04:48:15;3.72;;;3.35;;
13807;SDS011;40769;51.512;5.494;2022-07-22T04:50:41;3.75;;;3.28;;
13807;SDS011;40769;51.512;5.494;2022-07-22T04:53:06;3.80;;;3.47;;
13807;SDS011;40769;51.512;5.494;2022-07-22T04:55:32;4.93;;;3.55;;
13807;SDS011;40769;51.512;5.494;2022-07-22T04:57:58;3.83;;;3.38;;
13807;SDS011;40769;51.512;5.494;2022-07-22T05:00:23;3.45;;;3.15;;
13807;SDS011;40769;51.512;5.494;2022-07-22T05:02:49;3.10;;;2.83;;
13807;SDS011;40769;51.512;5.494;2022-07-22T05:05:16;3.38;;;2.95;;
13807;SDS011;40769;51.512;5.494;2022-07-22T05:07:41;3.05;;;2.80;;
13807;SDS011;40769;51.512;5.494;2022-07-22T05:10:07;4.88;;;3.38;;
13807;SDS011;40769;51.512;5.494;2022-07-22T05:12:33;4.88;;;3.38;;
13807;SDS011;40769;51.512;5.494;2022-07-22T05:14:58;3.75;;;3.45;;
13807;SDS011;40769;51.512;5.494;2022-07-22T05:17:24;3.45;;;3.15;;
13807;SDS011;40769;51.512;5.494;2022-07-22T05:19:50;2.97;;;2.67;;
13807;SDS011;40769;51.512;5.494;2022-07-22T05:22:15;3.75;;;3.00;;
13807;SDS011;40769;51.512;5.494;2022-07-22T05:24:41;4.00;;;3.00;;
13807;SDS011;40769;51.512;5.494;2022-07-22T05:27:07;3.10;;;2.80;;
13807;SDS011;40769;51.512;5.494;2022-07-22T05:29:33;3.97;;;3.45;;
13807;SDS011;40769;51.512;5.494;2022-07-22T05:31:58;3.92;;;3.58;;
13807;SDS011;40769;51.512;5.494;2022-07-22T05:34:27;4.47;;;3.35;;
13807;SDS011;40769;51.512;5.494;2022-07-22T05:36:52;3.33;;;3.00;;
13807;SDS011;40769;51.512;5.494;2022-07-22T05:39:18;3.63;;;3.33;;
13807;SDS011;40769;51.512;5.494;2022-07-22T05:41:44;3.55;;;3.25;;
13807;SDS011;40769;51.512;5.494;2022-07-22T05:44:09;5.00;;;3.33;;
13807;SDS011;40769;51.512;5.494;2022-07-22T05:46:38;3.50;;;3.20;;
13807;SDS011;40769;51.512;5.494;2022-07-22T05:49:03;3.95;;;3.55;;
13807;SDS011;40769;51.512;5.494;2022-07-22T05:51:29;4.65;;;4.25;;
13807;SDS011;40769;51.512;5.494;2022-07-22T05:53:55;3.78;;;3.47;;
13807;SDS011;40769;51.512;5.494;2022-07-22T05:56:20;4.07;;;3.67;;
13807;SDS011;40769;51.512;5.494;2022-07-22T05:58:46;5.72;;;5.15;;
13807;SDS011;40769;51.512;5.494;2022-07-22T06:01:12;5.57;;;5.07;;
13807;SDS011;40769;51.512;5.494;2022-07-22T06:03:38;3.72;;;3.00;;
13807;SDS011;40769;51.512;5.494;2022-07-22T06:06:04;3.30;;;2.97;;
13807;SDS011;40769;51.512;5.494;2022-07-22T06:08:33;5.40;;;4.22;;
13807;SDS011;40769;51.512;5.494;2022-07-22T06:10:59;5.53;;;4.28;;
13807;SDS011;40769;51.512;5.494;2022-07-22T06:13:25;6.82;;;4.35;;
13807;SDS011;40769;51.512;5.494;2022-07-22T06:15:51;4.55;;;4.15;;
13807;SDS011;40769;51.512;5.494;2022-07-22T06:18:16;5.53;;;3.65;;
13807;SDS011;40769;51.512;5.494;2022-07-22T06:20:42;3.85;;;3.55;;
13807;SDS011;40769;51.512;5.494;2022-07-22T06:23:08;5.43;;;5.03;;
13807;SDS011;40769;51.512;5.494;2022-07-22T06:25:34;6.80;;;5.88;;
13807;SDS011;40769;51.512;5.494;2022-07-22T06:27:59;3.83;;;3.47;;
13807;SDS011;40769;51.512;5.494;2022-07-22T06:30:25;6.00;;;4.80;;
13807;SDS011;40769;51.512;5.494;2022-07-22T06:32:53;4.95;;;4.55;;
13807;SDS011;40769;51.512;5.494;2022-07-22T06:35:19;6.18;;;5.28;;
13807;SDS011;40769;51.512;5.494;2022-07-22T06:37:45;3.60;;;3.30;;
13807;SDS011;40769;51.512;5.494;2022-07-22T06:40:10;3.92;;;3.20;;
13807;SDS011;40769;51.512;5.494;2022-07-22T06:42:37;3.80;;;2.50;;
13807;SDS011;40769;51.512;5.494;2022-07-22T06:45:03;2.85;;;2.60;;
13807;SDS011;40769;51.512;5.494;2022-07-22T06:47:29;2.28;;;2.08;;
13807;SDS011;40769;51.512;5.494;2022-07-22T06:49:57;3.08;;;2.78;;
13807;SDS011;40769;51.512;5.494;2022-07-22T06:52:22;2.97;;;2.67;;
13807;SDS011;40769;51.512;5.494;2022-07-22T06:54:49;3.90;;;3.60;;
13807;SDS011;40769;51.512;5.494;2022-07-22T06:57:14;2.97;;;2.35;;
13807;SDS011;40769;51.512;5.494;2022-07-22T06:59:40;3.58;;;3.28;;
13807;SDS011;40769;51.512;5.494;2022-07-22T07:02:06;2.90;;;2.70;;
13807;SDS011;40769;51.512;5.494;2022-07-22T07:04:31;2.40;;;2.20;;
13807;SDS011;40769;51.512;5.494;2022-07-22T07:06:57;2.90;;;1.90;;
13807;SDS011;40769;51.512;5.494;2022-07-22T07:09:23;1.88;;;1.77;;
13807;SDS011;40769;51.512;5.494;2022-07-22T07:11:48;1.85;;;1.73;;
13807;SDS011;40769;51.512;5.494;2022-07-22T07:14:14;1.90;;;1.63;;
13807;SDS011;40769;51.512;5.494;2022-07-22T07:16:40;2.10;;;1.75;;
13807;SDS011;40769;51.512;5.494;2022-07-22T07:19:08;1.38;;;1.27;;
13807;SDS011;40769;51.512;5.494;2022-07-22T07:21:34;1.20;;;1.10;;
13807;SDS011;40769;51.512;5.494;2022-07-22T07:24:00;1.30;;;1.20;;
13807;SDS011;40769;51.512;5.494;2022-07-22T07:26:26;1.30;;;1.20;;
13807;SDS011;40769;51.512;5.494;2022-07-22T07:28:52;1.40;;;1.30;;
13807;SDS011;40769;51.512;5.494;2022-07-22T07:31:18;1.60;;;1.50;;
13807;SDS011;40769;51.512;5.494;2022-07-22T07:33:43;1.30;;;1.20;;
13807;SDS011;40769;51.512;5.494;2022-07-22T07:36:09;1.48;;;1.27;;
13807;SDS011;40769;51.512;5.494;2022-07-22T07:38:34;1.75;;;1.27;;
13807;SDS011;40769;51.512;5.494;2022-07-22T07:41:01;1.20;;;1.08;;
13807;SDS011;40769;51.512;5.494;2022-07-22T07:43:27;1.00;;;0.90;;
13807;SDS011;40769;51.512;5.494;2022-07-22T07:45:53;1.92;;;1.38;;
13807;SDS011;40769;51.512;5.494;2022-07-22T07:48:18;1.17;;;1.08;;
13807;SDS011;40769;51.512;5.494;2022-07-22T07:50:44;1.50;;;1.40;;
13807;SDS011;40769;51.512;5.494;2022-07-22T07:53:13;1.27;;;1.17;;
13807;SDS011;40769;51.512;5.494;2022-07-22T07:55:39;1.30;;;1.20;;
13807;SDS011;40769;51.512;5.494;2022-07-22T07:58:05;1.65;;;1.00;;
13807;SDS011;40769;51.512;5.494;2022-07-22T08:00:32;1.10;;;1.00;;
13807;SDS011;40769;51.512;5.494;2022-07-22T08:02:59;1.38;;;1.10;;
13807;SDS011;40769;51.512;5.494;2022-07-22T08:05:25;1.17;;;1.08;;
13807;SDS011;40769;51.512;5.494;2022-07-22T08:07:52;1.23;;;1.08;;
13807;SDS011;40769;51.512;5.494;2022-07-22T08:10:18;1.77;;;1.10;;
13807;SDS011;40769;51.512;5.494;2022-07-22T08:12:47;1.90;;;1.67;;
13807;SDS011;40769;51.512;5.494;2022-07-22T08:15:13;1.25;;;1.13;;
13807;SDS011;40769;51.512;5.494;2022-07-22T08:17:39;1.00;;;0.90;;
13807;SDS011;40769;51.512;5.494;2022-07-22T08:20:05;1.10;;;0.93;;
13807;SDS011;40769;51.512;5.494;2022-07-22T08:22:31;0.90;;;0.75;;
13807;SDS011;40769;51.512;5.494;2022-07-22T08:24:57;1.95;;;1.70;;
13807;SDS011;40769;51.512;5.494;2022-07-22T08:27:22;1.98;;;1.25;;
13807;SDS011;40769;51.512;5.494;2022-07-22T08:29:48;1.10;;;0.85;;
13807;SDS011;40769;51.512;5.494;2022-07-22T08:32:14;1.60;;;1.17;;
13807;SDS011;40769;51.512;5.494;2022-07-22T08:34:39;1.38;;;1.00;;
13807;SDS011;40769;51.512;5.494;2022-07-22T08:37:05;1.00;;;0.90;;
13807;SDS011;40769;51.512;5.494;2022-07-22T08:39:32;5.20;;;1.30;;
13807;SDS011;40769;51.512;5.494;2022-07-22T08:41:59;1.17;;;1.08;;
13807;SDS011;40769;51.512;5.494;2022-07-22T08:44:28;1.27;;;1.20;;
13807;SDS011;40769;51.512;5.494;2022-07-22T08:46:58;2.38;;;1.50;;
13807;SDS011;40769;51.512;5.494;2022-07-22T08:49:24;2.35;;;1.70;;
13807;SDS011;40769;51.512;5.494;2022-07-22T08:51:50;2.10;;;1.30;;
13807;SDS011;40769;51.512;5.494;2022-07-22T08:54:16;1.45;;;1.20;;
13807;SDS011;40769;51.512;5.494;2022-07-22T08:56:44;1.48;;;1.38;;
13807;SDS011;40769;51.512;5.494;2022-07-22T08:59:11;1.55;;;1.40;;
13807;SDS011;40769;51.512;5.494;2022-07-22T09:01:37;2.60;;;1.75;;
13807;SDS011;40769;51.512;5.494;2022-07-22T09:04:03;1.80;;;1.70;;
13807;SDS011;40769;51.512;5.494;2022-07-22T09:06:28;2.33;;;1.70;;
13807;SDS011;40769;51.512;5.494;2022-07-22T09:09:01;2.85;;;1.80;;
13807;SDS011;40769;51.512;5.494;2022-07-22T09:11:29;1.48;;;1.33;;
13807;SDS011;40769;51.512;5.494;2022-07-22T09:13:59;2.30;;;2.08;;
13807;SDS011;40769;51.512;5.494;2022-07-22T09:16:38;2.25;;;2.05;;
13807;SDS011;40769;51.512;5.494;2022-07-22T09:19:12;1.90;;;1.80;;
13807;SDS011;40769;51.512;5.494;2022-07-22T09:21:38;1.60;;;1.40;;
13807;SDS011;40769;51.512;5.494;2022-07-22T09:24:05;2.35;;;2.15;;
13807;SDS011;40769;51.512;5.494;2022-07-22T09:26:32;1.40;;;1.30;;
13807;SDS011;40769;51.512;5.494;2022-07-22T09:29:00;2.28;;;1.52;;
13807;SDS011;40769;51.512;5.494;2022-07-22T09:31:26;1.98;;;1.35;;
13807;SDS011;40769;51.512;5.494;2022-07-22T09:33:55;3.20;;;1.60;;
13807;SDS011;40769;51.512;5.494;2022-07-22T09:36:22;1.55;;;1.45;;
13807;SDS011;40769;51.512;5.494;2022-07-22T09:38:48;2.45;;;1.63;;
13807;SDS011;40769;51.512;5.494;2022-07-22T09:41:13;1.58;;;1.48;;
13807;SDS011;40769;51.512;5.494;2022-07-22T09:43:39;1.80;;;1.52;;
13807;SDS011;40769;51.512;5.494;2022-07-22T09:46:05;1.25;;;1.20;;
13807;SDS011;40769;51.512;5.494;2022-07-22T09:48:30;2.00;;;1.65;;
13807;SDS011;40769;51.512;5.494;2022-07-22T09:50:57;1.90;;;1.42;;
13807;SDS011;40769;51.512;5.494;2022-07-22T09:53:27;1.77;;;1.63;;
13807;SDS011;40769;51.512;5.494;2022-07-22T09:55:54;1.90;;;1.60;;
13807;SDS011;40769;51.512;5.494;2022-07-22T09:58:21;1.40;;;1.30;;
13807;SDS011;40769;51.512;5.494;2022-07-22T10:00:47;2.03;;;1.50;;
13807;SDS011;40769;51.512;5.494;2022-07-22T10:03:26;1.50;;;1.40;;
13807;SDS011;40769;51.512;5.494;2022-07-22T10:05:57;1.50;;;1.30;;
13807;SDS011;40769;51.512;5.494;2022-07-22T10:08:27;1.20;;;1.10;;
13807;SDS011;40769;51.512;5.494;2022-07-22T10:10:55;2.28;;;2.08;;
13807;SDS011;40769;51.512;5.494;2022-07-22T10:13:24;1.35;;;1.25;;
13807;SDS011;40769;51.512;5.494;2022-07-22T10:15:51;1.70;;;1.60;;
13807;SDS011;40769;51.512;5.494;2022-07-22T10:18:18;1.52;;;1.42;;
13807;SDS011;40769;51.512;5.494;2022-07-22T10:20:44;1.27;;;1.17;;
13807;SDS011;40769;51.512;5.494;2022-07-22T10:23:11;2.22;;;1.60;;
13807;SDS011;40769;51.512;5.494;2022-07-22T10:26:10;2.45;;;2.25;;
13807;SDS011;40769;51.512;5.494;2022-07-22T10:28:33;2.78;;;1.80;;
13807;SDS011;40769;51.512;5.494;2022-07-22T10:33:41;1.70;;;1.60;;
13807;SDS011;40769;51.512;5.494;2022-07-22T10:36:08;2.03;;;1.65;;
13807;SDS011;40769;51.512;5.494;2022-07-22T10:38:35;1.75;;;1.63;;
13807;SDS011;40769;51.512;5.494;2022-07-22T10:41:01;2.58;;;1.63;;
13807;SDS011;40769;51.512;5.494;2022-07-22T10:43:45;1.67;;;1.58;;
13807;SDS011;40769;51.512;5.494;2022-07-22T10:46:12;1.63;;;1.50;;
13807;SDS011;40769;51.512;5.494;2022-07-22T11:01:21;1.92;;;1.73;;
13807;SDS011;40769;51.512;5.494;2022-07-22T11:03:49;2.40;;;2.20;;
13807;SDS011;40769;51.512;5.494;2022-07-22T11:08:43;1.60;;;1.50;;
13807;SDS011;40769;51.512;5.494;2022-07-22T11:11:10;2.53;;;1.75;;
13807;SDS011;40769;51.512;5.494;2022-07-22T11:13:37;1.35;;;1.25;;
13807;SDS011;40769;51.512;5.494;2022-07-22T11:18:59;2.17;;;1.98;;
13807;SDS011;40769;51.512;5.494;2022-07-22T11:21:29;1.60;;;1.50;;
13807;SDS011;40769;51.512;5.494;2022-07-22T11:23:58;1.70;;;1.60;;
13807;SDS011;40769;51.512;5.494;2022-07-22T11:26:40;1.70;;;1.60;;
13807;SDS011;40769;51.512;5.494;2022-07-22T11:29:08;1.60;;;1.50;;
13807;SDS011;40769;51.512;5.494;2022-07-22T11:31:34;1.70;;;1.60;;
13807;SDS011;40769;51.512;5.494;2022-07-22T11:34:14;1.38;;;1.27;;
13807;SDS011;40769;51.512;5.494;2022-07-22T11:36:41;1.63;;;1.48;;
13807;SDS011;40769;51.512;5.494;2022-07-22T11:39:09;2.40;;;2.20;;
13807;SDS011;40769;51.512;5.494;2022-07-22T11:41:36;1.92;;;1.67;;
13807;SDS011;40769;51.512;5.494;2022-07-22T11:44:03;2.83;;;1.95;;
13807;SDS011;40769;51.512;5.494;2022-07-22T11:46:34;2.50;;;2.22;;
13807;SDS011;40769;51.512;5.494;2022-07-22T11:49:01;2.83;;;2.63;;
13807;SDS011;40769;51.512;5.494;2022-07-22T11:51:31;2.38;;;2.17;;
13807;SDS011;40769;51.512;5.494;2022-07-22T11:53:57;2.97;;;2.72;;
13807;SDS011;40769;51.512;5.494;2022-07-22T11:56:24;3.33;;;1.90;;
13807;SDS011;40769;51.512;5.494;2022-07-22T11:58:50;3.00;;;2.70;;
13807;SDS011;40769;51.512;5.494;2022-07-22T12:01:20;2.53;;;2.33;;
13807;SDS011;40769;51.512;5.494;2022-07-22T12:03:49;1.83;;;1.73;;
13807;SDS011;40769;51.512;5.494;2022-07-22T12:06:16;2.67;;;2.08;;
13807;SDS011;40769;51.512;5.494;2022-07-22T12:09:04;2.22;;;1.83;;
13807;SDS011;40769;51.512;5.494;2022-07-22T12:11:34;2.30;;;2.10;;
13807;SDS011;40769;51.512;5.494;2022-07-22T12:14:11;1.75;;;1.65;;
13807;SDS011;40769;51.512;5.494;2022-07-22T12:16:39;2.55;;;2.17;;
13807;SDS011;40769;51.512;5.494;2022-07-22T12:19:09;2.85;;;2.63;;
13807;SDS011;40769;51.512;5.494;2022-07-22T12:24:46;1.30;;;1.20;;
13807;SDS011;40769;51.512;5.494;2022-07-22T12:27:26;2.70;;;2.50;;
13807;SDS011;40769;51.512;5.494;2022-07-22T12:29:52;1.88;;;1.77;;
13807;SDS011;40769;51.512;5.494;2022-07-22T12:32:18;4.30;;;2.17;;
13807;SDS011;40769;51.512;5.494;2022-07-22T12:37:26;1.98;;;1.88;;
13807;SDS011;40769;51.512;5.494;2022-07-22T12:39:54;2.05;;;1.90;;
13807;SDS011;40769;51.512;5.494;2022-07-22T12:42:25;1.67;;;1.58;;
13807;SDS011;40769;51.512;5.494;2022-07-22T12:52:55;4.35;;;3.53;;
13807;SDS011;40769;51.512;5.494;2022-07-22T12:55:24;3.45;;;3.15;;
13807;SDS011;40769;51.512;5.494;2022-07-22T12:57:50;1.88;;;1.77;;
13807;SDS011;40769;51.512;5.494;2022-07-22T13:00:20;1.83;;;1.70;;
13807;SDS011;40769;51.512;5.494;2022-07-22T13:02:48;2.55;;;2.35;;
13807;SDS011;40769;51.512;5.494;2022-07-22T13:05:15;2.17;;;2.03;;
13807;SDS011;40769;51.512;5.494;2022-07-22T13:07:41;2.63;;;2.42;;
13807;SDS011;40769;51.512;5.494;2022-07-22T13:10:07;3.30;;;3.00;;
13807;SDS011;40769;51.512;5.494;2022-07-22T13:12:33;2.33;;;2.13;;
13807;SDS011;40769;51.512;5.494;2022-07-22T13:14:59;2.80;;;2.60;;
13807;SDS011;40769;51.512;5.494;2022-07-22T13:17:25;3.53;;;3.22;;
13807;SDS011;40769;51.512;5.494;2022-07-22T13:19:50;2.33;;;2.22;;
13807;SDS011;40769;51.512;5.494;2022-07-22T13:22:16;2.25;;;2.10;;
13807;SDS011;40769;51.512;5.494;2022-07-22T13:24:41;4.30;;;2.75;;
13807;SDS011;40769;51.512;5.494;2022-07-22T13:27:07;2.65;;;2.30;;
13807;SDS011;40769;51.512;5.494;2022-07-22T13:29:32;2.10;;;1.95;;
13807;SDS011;40769;51.512;5.494;2022-07-22T13:31:58;3.42;;;3.13;;
13807;SDS011;40769;51.512;5.494;2022-07-22T13:34:24;2.08;;;1.98;;
13807;SDS011;40769;51.512;5.494;2022-07-22T13:36:50;2.25;;;1.88;;
13807;SDS011;40769;51.512;5.494;2022-07-22T13:39:15;2.42;;;2.28;;
13807;SDS011;40769;51.512;5.494;2022-07-22T13:41:41;2.33;;;2.20;;
13807;SDS011;40769;51.512;5.494;2022-07-22T13:44:07;1.83;;;1.67;;
13807;SDS011;40769;51.512;5.494;2022-07-22T13:46:35;1.85;;;1.75;;
13807;SDS011;40769;51.512;5.494;2022-07-22T13:49:02;2.70;;;2.38;;
13807;SDS011;40769;51.512;5.494;2022-07-22T13:51:27;2.20;;;2.10;;
13807;SDS011;40769;51.512;5.494;2022-07-22T13:53:53;1.90;;;1.80;;
13807;SDS011;40769;51.512;5.494;2022-07-22T13:56:19;1.77;;;1.67;;
13807;SDS011;40769;51.512;5.494;2022-07-22T13:58:45;3.42;;;3.10;;
13807;SDS011;40769;51.512;5.494;2022-07-22T14:01:11;3.45;;;3.20;;
13807;SDS011;40769;51.512;5.494;2022-07-22T14:03:37;3.63;;;3.33;;
13807;SDS011;40769;51.512;5.494;2022-07-22T14:06:03;3.28;;;3.00;;
13807;SDS011;40769;51.512;5.494;2022-07-22T14:08:30;3.20;;;2.90;;
13807;SDS011;40769;51.512;5.494;2022-07-22T14:10:56;4.20;;;3.90;;
13807;SDS011;40769;51.512;5.494;2022-07-22T14:13:21;4.13;;;3.83;;
13807;SDS011;40769;51.512;5.494;2022-07-22T14:15:47;5.72;;;5.22;;
13807;SDS011;40769;51.512;5.494;2022-07-22T14:18:13;5.63;;;5.07;;
13807;SDS011;40769;51.512;5.494;2022-07-22T14:20:39;3.53;;;3.22;;
13807;SDS011;40769;51.512;5.494;2022-07-22T14:23:05;3.50;;;3.20;;
13807;SDS011;40769;51.512;5.494;2022-07-22T14:25:32;3.70;;;3.42;;
13807;SDS011;40769;51.512;5.494;2022-07-22T14:27:58;3.45;;;3.17;;
13807;SDS011;40769;51.512;5.494;2022-07-22T14:30:24;5.47;;;5.13;;
13807;SDS011;40769;51.512;5.494;2022-07-22T14:32:49;4.13;;;3.83;;
13807;SDS011;40769;51.512;5.494;2022-07-22T14:35:15;5.85;;;5.35;;
13807;SDS011;40769;51.512;5.494;2022-07-22T14:37:41;4.20;;;3.80;;
13807;SDS011;40769;51.512;5.494;2022-07-22T14:40:06;5.50;;;5.00;;
13807;SDS011;40769;51.512;5.494;2022-07-22T14:42:33;5.38;;;4.97;;
13807;SDS011;40769;51.512;5.494;2022-07-22T14:44:58;5.28;;;4.88;;
13807;SDS011;40769;51.512;5.494;2022-07-22T14:47:24;4.13;;;3.83;;
13807;SDS011;40769;51.512;5.494;2022-07-22T14:49:51;3.63;;;3.38;;
13807;SDS011;40769;51.512;5.494;2022-07-22T14:52:17;2.92;;;2.72;;
13807;SDS011;40769;51.512;5.494;2022-07-22T14:54:43;4.43;;;4.10;;
13807;SDS011;40769;51.512;5.494;2022-07-22T14:57:08;3.60;;;3.30;;
13807;SDS011;40769;51.512;5.494;2022-07-22T14:59:34;3.53;;;3.33;;
13807;SDS011;40769;51.512;5.494;2022-07-22T15:01:59;4.85;;;4.47;;
13807;SDS011;40769;51.512;5.494;2022-07-22T15:04:25;6.15;;;5.65;;
13807;SDS011;40769;51.512;5.494;2022-07-22T15:06:51;6.13;;;5.60;;
13807;SDS011;40769;51.512;5.494;2022-07-22T15:09:16;5.05;;;4.57;;
13807;SDS011;40769;51.512;5.494;2022-07-22T15:11:42;5.97;;;5.50;;
13807;SDS011;40769;51.512;5.494;2022-07-22T15:14:07;4.40;;;4.10;;
13807;SDS011;40769;51.512;5.494;2022-07-22T15:16:33;5.65;;;5.25;;
13807;SDS011;40769;51.512;5.494;2022-07-22T15:18:59;5.15;;;4.65;;